sensor_id;sensor_type;location;lat;lon;timestamp;P1;durP1;ratioP1;P2;durP2;ratioP2
12212;SDS011;6169;44.158;22.788;2022-10-01T00:01:20;8.13;;;5.70;;
12212;SDS011;6169;44.158;22.788;2022-10-01T00:06:24;9.35;;;6.82;;
12212;SDS011;6169;44.158;22.788;2022-10-01T00:11:26;8.27;;;6.40;;
12212;SDS011;6169;44.158;22.788;2022-10-01T00:16:29;12.25;;;7.20;;
12212;SDS011;6169;44.158;22.788;2022-10-01T00:21:33;8.10;;;5.78;;
12212;SDS011;6169;44.158;22.788;2022-10-01T00:26:35;6.68;;;5.63;;
12212;SDS011;6169;44.158;22.788;2022-10-01T00:31:38;6.45;;;4.78;;
12212;SDS011;6169;44.158;22.788;2022-10-01T00:36:41;14.77;;;6.70;;
12212;SDS011;6169;44.158;22.788;2022-10-01T00:41:43;7.93;;;6.53;;
12212;SDS011;6169;44.158;22.788;2022-10-01T00:46:46;11.45;;;6.40;;
12212;SDS011;6169;44.158;22.788;2022-10-01T00:51:50;9.68;;;6.65;;
12212;SDS011;6169;44.158;22.788;2022-10-01T00:56:56;8.18;;;6.40;;
12212;SDS011;6169;44.158;22.788;2022-10-01T01:02:00;8.63;;;5.50;;
12212;SDS011;6169;44.158;22.788;2022-10-01T01:07:04;8.00;;;5.22;;
12212;SDS011;6169;44.158;22.788;2022-10-01T01:12:08;9.02;;;6.22;;
12212;SDS011;6169;44.158;22.788;2022-10-01T01:17:17;6.40;;;5.43;;
12212;SDS011;6169;44.158;22.788;2022-10-01T01:22:27;6.13;;;5.22;;
12212;SDS011;6169;44.158;22.788;2022-10-01T01:27:36;8.55;;;6.18;;
12212;SDS011;6169;44.158;22.788;2022-10-01T01:32:45;8.45;;;5.88;;
12212;SDS011;6169;44.158;22.788;2022-10-01T01:37:54;6.38;;;5.75;;
12212;SDS011;6169;44.158;22.788;2022-10-01T01:43:00;7.07;;;5.90;;
12212;SDS011;6169;44.158;22.788;2022-10-01T01:48:06;8.82;;;6.18;;
12212;SDS011;6169;44.158;22.788;2022-10-01T01:53:12;5.82;;;5.22;;
12212;SDS011;6169;44.158;22.788;2022-10-01T01:58:14;7.95;;;6.13;;
12212;SDS011;6169;44.158;22.788;2022-10-01T02:03:19;7.78;;;4.97;;
12212;SDS011;6169;44.158;22.788;2022-10-01T02:08:24;6.35;;;5.70;;
12212;SDS011;6169;44.158;22.788;2022-10-01T02:13:38;8.40;;;5.50;;
12212;SDS011;6169;44.158;22.788;2022-10-01T02:18:52;7.43;;;5.13;;
12212;SDS011;6169;44.158;22.788;2022-10-01T02:24:00;7.85;;;5.40;;
12212;SDS011;6169;44.158;22.788;2022-10-01T02:29:09;5.35;;;4.85;;
12212;SDS011;6169;44.158;22.788;2022-10-01T02:34:15;7.20;;;4.88;;
12212;SDS011;6169;44.158;22.788;2022-10-01T02:39:20;6.50;;;5.88;;
12212;SDS011;6169;44.158;22.788;2022-10-01T02:44:24;9.23;;;6.65;;
12212;SDS011;6169;44.158;22.788;2022-10-01T02:49:38;10.43;;;7.10;;
12212;SDS011;6169;44.158;22.788;2022-10-01T02:54:44;6.57;;;5.95;;
12212;SDS011;6169;44.158;22.788;2022-10-01T02:59:51;8.38;;;5.85;;
12212;SDS011;6169;44.158;22.788;2022-10-01T03:04:57;8.90;;;6.40;;
12212;SDS011;6169;44.158;22.788;2022-10-01T03:10:00;7.57;;;6.15;;
12212;SDS011;6169;44.158;22.788;2022-10-01T03:15:03;8.45;;;6.50;;
12212;SDS011;6169;44.158;22.788;2022-10-01T03:20:08;9.63;;;5.93;;
12212;SDS011;6169;44.158;22.788;2022-10-01T03:25:11;6.90;;;5.75;;
12212;SDS011;6169;44.158;22.788;2022-10-01T03:30:13;8.63;;;5.65;;
12212;SDS011;6169;44.158;22.788;2022-10-01T03:35:17;7.65;;;5.60;;
12212;SDS011;6169;44.158;22.788;2022-10-01T03:40:19;5.68;;;5.07;;
12212;SDS011;6169;44.158;22.788;2022-10-01T03:45:21;7.03;;;5.65;;
12212;SDS011;6169;44.158;22.788;2022-10-01T03:50:25;7.43;;;5.47;;
12212;SDS011;6169;44.158;22.788;2022-10-01T03:55:27;6.10;;;5.47;;
12212;SDS011;6169;44.158;22.788;2022-10-01T04:00:30;6.25;;;5.18;;
12212;SDS011;6169;44.158;22.788;2022-10-01T04:05:34;6.35;;;5.07;;
12212;SDS011;6169;44.158;22.788;2022-10-01T04:10:36;7.88;;;5.88;;
12212;SDS011;6169;44.158;22.788;2022-10-01T04:15:38;10.70;;;5.50;;
12212;SDS011;6169;44.158;22.788;2022-10-01T04:20:42;7.55;;;6.82;;
12212;SDS011;6169;44.158;22.788;2022-10-01T04:25:44;5.63;;;5.20;;
12212;SDS011;6169;44.158;22.788;2022-10-01T04:30:47;7.00;;;5.70;;
12212;SDS011;6169;44.158;22.788;2022-10-01T04:36:10;6.03;;;5.43;;
12212;SDS011;6169;44.158;22.788;2022-10-01T04:41:12;8.02;;;5.40;;
12212;SDS011;6169;44.158;22.788;2022-10-01T04:46:15;6.03;;;5.43;;
12212;SDS011;6169;44.158;22.788;2022-10-01T04:51:18;6.40;;;5.32;;
12212;SDS011;6169;44.158;22.788;2022-10-01T04:56:21;14.30;;;6.47;;
12212;SDS011;6169;44.158;22.788;2022-10-01T05:01:23;7.07;;;6.05;;
12212;SDS011;6169;44.158;22.788;2022-10-01T05:06:27;6.95;;;4.93;;
12212;SDS011;6169;44.158;22.788;2022-10-01T05:11:29;9.23;;;6.03;;
12212;SDS011;6169;44.158;22.788;2022-10-01T05:16:32;6.43;;;5.75;;
12212;SDS011;6169;44.158;22.788;2022-10-01T05:21:36;7.60;;;6.25;;
12212;SDS011;6169;44.158;22.788;2022-10-01T05:26:39;10.45;;;9.30;;
12212;SDS011;6169;44.158;22.788;2022-10-01T05:31:41;8.52;;;6.65;;
12212;SDS011;6169;44.158;22.788;2022-10-01T05:36:44;15.18;;;5.68;;
12212;SDS011;6169;44.158;22.788;2022-10-01T05:41:46;11.02;;;5.10;;
12212;SDS011;6169;44.158;22.788;2022-10-01T05:46:50;10.77;;;5.78;;
12212;SDS011;6169;44.158;22.788;2022-10-01T05:51:55;9.40;;;6.00;;
12212;SDS011;6169;44.158;22.788;2022-10-01T05:56:59;6.45;;;5.55;;
12212;SDS011;6169;44.158;22.788;2022-10-01T06:02:02;6.13;;;4.18;;
12212;SDS011;6169;44.158;22.788;2022-10-01T06:07:06;6.28;;;5.30;;
12212;SDS011;6169;44.158;22.788;2022-10-01T06:12:08;7.95;;;5.15;;
12212;SDS011;6169;44.158;22.788;2022-10-01T06:17:10;8.30;;;6.07;;
12212;SDS011;6169;44.158;22.788;2022-10-01T06:22:14;7.80;;;5.20;;
12212;SDS011;6169;44.158;22.788;2022-10-01T06:27:16;7.50;;;5.63;;
12212;SDS011;6169;44.158;22.788;2022-10-01T06:32:19;6.80;;;5.50;;
12212;SDS011;6169;44.158;22.788;2022-10-01T06:37:22;6.13;;;5.50;;
12212;SDS011;6169;44.158;22.788;2022-10-01T06:42:25;10.80;;;6.70;;
12212;SDS011;6169;44.158;22.788;2022-10-01T06:47:27;11.50;;;7.32;;
12212;SDS011;6169;44.158;22.788;2022-10-01T06:52:31;10.80;;;7.03;;
12212;SDS011;6169;44.158;22.788;2022-10-01T06:57:52;7.93;;;5.88;;
12212;SDS011;6169;44.158;22.788;2022-10-01T07:02:55;6.47;;;5.70;;
12212;SDS011;6169;44.158;22.788;2022-10-01T07:07:59;8.23;;;6.35;;
12212;SDS011;6169;44.158;22.788;2022-10-01T07:13:05;8.85;;;7.13;;
12212;SDS011;6169;44.158;22.788;2022-10-01T07:18:09;10.25;;;8.25;;
12212;SDS011;6169;44.158;22.788;2022-10-01T07:23:13;12.98;;;10.60;;
12212;SDS011;6169;44.158;22.788;2022-10-01T07:28:17;15.00;;;10.20;;
12212;SDS011;6169;44.158;22.788;2022-10-01T07:33:20;13.75;;;10.27;;
12212;SDS011;6169;44.158;22.788;2022-10-01T07:38:24;15.48;;;8.85;;
12212;SDS011;6169;44.158;22.788;2022-10-01T07:43:26;14.57;;;10.52;;
12212;SDS011;6169;44.158;22.788;2022-10-01T07:48:29;14.88;;;10.73;;
12212;SDS011;6169;44.158;22.788;2022-10-01T07:53:32;18.67;;;9.95;;
12212;SDS011;6169;44.158;22.788;2022-10-01T07:58:35;13.55;;;10.68;;
12212;SDS011;6169;44.158;22.788;2022-10-01T08:03:37;15.32;;;10.23;;
12212;SDS011;6169;44.158;22.788;2022-10-01T08:08:41;12.68;;;11.40;;
12212;SDS011;6169;44.158;22.788;2022-10-01T08:13:43;12.20;;;9.27;;
12212;SDS011;6169;44.158;22.788;2022-10-01T08:18:46;11.07;;;9.25;;
12212;SDS011;6169;44.158;22.788;2022-10-01T08:23:51;12.43;;;9.43;;
12212;SDS011;6169;44.158;22.788;2022-10-01T08:28:53;12.32;;;7.70;;
12212;SDS011;6169;44.158;22.788;2022-10-01T08:33:56;8.18;;;6.90;;
12212;SDS011;6169;44.158;22.788;2022-10-01T08:38:59;13.57;;;8.20;;
12212;SDS011;6169;44.158;22.788;2022-10-01T08:44:02;9.35;;;7.78;;
12212;SDS011;6169;44.158;22.788;2022-10-01T08:49:11;10.32;;;7.05;;
12212;SDS011;6169;44.158;22.788;2022-10-01T08:54:33;12.05;;;9.13;;
12212;SDS011;6169;44.158;22.788;2022-10-01T08:59:39;10.32;;;7.47;;
12212;SDS011;6169;44.158;22.788;2022-10-01T09:04:43;11.52;;;8.27;;
12212;SDS011;6169;44.158;22.788;2022-10-01T09:09:48;13.57;;;9.27;;
12212;SDS011;6169;44.158;22.788;2022-10-01T09:15:02;15.38;;;9.82;;
12212;SDS011;6169;44.158;22.788;2022-10-01T09:20:19;16.40;;;9.45;;
12212;SDS011;6169;44.158;22.788;2022-10-01T09:25:27;7.90;;;6.32;;
12212;SDS011;6169;44.158;22.788;2022-10-01T09:30:30;8.73;;;6.07;;
12212;SDS011;6169;44.158;22.788;2022-10-01T09:35:34;7.00;;;5.57;;
12212;SDS011;6169;44.158;22.788;2022-10-01T09:40:47;6.43;;;5.75;;
12212;SDS011;6169;44.158;22.788;2022-10-01T09:45:54;10.30;;;5.55;;
12212;SDS011;6169;44.158;22.788;2022-10-01T09:50:57;7.25;;;6.18;;
12212;SDS011;6169;44.158;22.788;2022-10-01T09:56:09;6.47;;;5.20;;
12212;SDS011;6169;44.158;22.788;2022-10-01T10:01:17;8.82;;;4.97;;
12212;SDS011;6169;44.158;22.788;2022-10-01T10:06:25;8.60;;;5.70;;
12212;SDS011;6169;44.158;22.788;2022-10-01T10:11:31;8.60;;;6.00;;
12212;SDS011;6169;44.158;22.788;2022-10-01T10:16:34;7.10;;;5.53;;
12212;SDS011;6169;44.158;22.788;2022-10-01T10:21:47;7.68;;;6.03;;
12212;SDS011;6169;44.158;22.788;2022-10-01T10:26:53;7.80;;;6.15;;
12212;SDS011;6169;44.158;22.788;2022-10-01T10:31:57;10.88;;;5.65;;
12212;SDS011;6169;44.158;22.788;2022-10-01T10:37:05;8.30;;;5.30;;
12212;SDS011;6169;44.158;22.788;2022-10-01T10:42:15;6.10;;;5.45;;
12212;SDS011;6169;44.158;22.788;2022-10-01T10:47:19;9.65;;;5.55;;
12212;SDS011;6169;44.158;22.788;2022-10-01T10:52:25;5.97;;;5.10;;
12212;SDS011;6169;44.158;22.788;2022-10-01T10:57:32;6.13;;;4.53;;
12212;SDS011;6169;44.158;22.788;2022-10-01T11:02:36;9.27;;;4.88;;
12212;SDS011;6169;44.158;22.788;2022-10-01T11:07:41;10.20;;;5.03;;
12212;SDS011;6169;44.158;22.788;2022-10-01T11:12:50;6.63;;;5.47;;
12212;SDS011;6169;44.158;22.788;2022-10-01T11:23:50;6.72;;;4.13;;
12212;SDS011;6169;44.158;22.788;2022-10-01T11:29:14;5.88;;;4.93;;
12212;SDS011;6169;44.158;22.788;2022-10-01T11:34:40;7.10;;;5.53;;
12212;SDS011;6169;44.158;22.788;2022-10-01T11:39:55;6.93;;;4.22;;
12212;SDS011;6169;44.158;22.788;2022-10-01T11:45:06;12.25;;;8.43;;
12212;SDS011;6169;44.158;22.788;2022-10-01T11:50:17;11.57;;;5.35;;
12212;SDS011;6169;44.158;22.788;2022-10-01T11:55:22;10.60;;;5.20;;
12212;SDS011;6169;44.158;22.788;2022-10-01T12:00:49;9.65;;;4.50;;
12212;SDS011;6169;44.158;22.788;2022-10-01T12:06:00;6.85;;;3.70;;
12212;SDS011;6169;44.158;22.788;2022-10-01T12:11:05;10.73;;;5.55;;
12212;SDS011;6169;44.158;22.788;2022-10-01T12:16:19;9.60;;;5.38;;
12212;SDS011;6169;44.158;22.788;2022-10-01T12:21:31;10.07;;;6.32;;
12212;SDS011;6169;44.158;22.788;2022-10-01T12:26:40;9.30;;;6.43;;
12212;SDS011;6169;44.158;22.788;2022-10-01T12:31:52;8.48;;;5.72;;
12212;SDS011;6169;44.158;22.788;2022-10-01T12:37:04;10.50;;;7.63;;
12212;SDS011;6169;44.158;22.788;2022-10-01T12:42:19;10.32;;;6.53;;
12212;SDS011;6169;44.158;22.788;2022-10-01T12:52:44;10.53;;;7.63;;
12212;SDS011;6169;44.158;22.788;2022-10-01T12:57:54;12.57;;;7.05;;
12212;SDS011;6169;44.158;22.788;2022-10-01T13:03:13;13.13;;;6.72;;
12212;SDS011;6169;44.158;22.788;2022-10-01T13:08:38;9.88;;;8.00;;
12212;SDS011;6169;44.158;22.788;2022-10-01T13:13:49;16.38;;;9.68;;
12212;SDS011;6169;44.158;22.788;2022-10-01T13:18:57;12.32;;;9.52;;
12212;SDS011;6169;44.158;22.788;2022-10-01T13:24:07;12.23;;;9.85;;
12212;SDS011;6169;44.158;22.788;2022-10-01T13:29:20;14.52;;;10.20;;
12212;SDS011;6169;44.158;22.788;2022-10-01T13:34:37;13.40;;;8.25;;
12212;SDS011;6169;44.158;22.788;2022-10-01T13:44:43;15.68;;;9.75;;
12212;SDS011;6169;44.158;22.788;2022-10-01T13:49:52;20.88;;;11.15;;
12212;SDS011;6169;44.158;22.788;2022-10-01T13:54:57;11.52;;;9.73;;
12212;SDS011;6169;44.158;22.788;2022-10-01T14:00:05;12.13;;;10.20;;
12212;SDS011;6169;44.158;22.788;2022-10-01T14:05:26;17.33;;;12.27;;
12212;SDS011;6169;44.158;22.788;2022-10-01T14:10:35;16.30;;;11.00;;
12212;SDS011;6169;44.158;22.788;2022-10-01T14:16:01;14.02;;;10.68;;
12212;SDS011;6169;44.158;22.788;2022-10-01T14:21:09;12.15;;;9.27;;
12212;SDS011;6169;44.158;22.788;2022-10-01T14:26:29;15.93;;;11.80;;
12212;SDS011;6169;44.158;22.788;2022-10-01T14:31:42;15.20;;;11.02;;
12212;SDS011;6169;44.158;22.788;2022-10-01T14:36:53;25.45;;;12.85;;
12212;SDS011;6169;44.158;22.788;2022-10-01T14:41:57;32.63;;;17.90;;
12212;SDS011;6169;44.158;22.788;2022-10-01T14:46:59;24.38;;;14.93;;
12212;SDS011;6169;44.158;22.788;2022-10-01T14:52:21;19.25;;;13.45;;
12212;SDS011;6169;44.158;22.788;2022-10-01T14:57:28;17.83;;;11.88;;
12212;SDS011;6169;44.158;22.788;2022-10-01T15:02:42;13.90;;;11.07;;
12212;SDS011;6169;44.158;22.788;2022-10-01T15:07:47;11.93;;;10.73;;
12212;SDS011;6169;44.158;22.788;2022-10-01T15:12:49;15.50;;;12.10;;
12212;SDS011;6169;44.158;22.788;2022-10-01T15:17:53;33.47;;;22.98;;
12212;SDS011;6169;44.158;22.788;2022-10-01T15:22:57;16.95;;;12.90;;
12212;SDS011;6169;44.158;22.788;2022-10-01T15:28:00;25.17;;;17.95;;
12212;SDS011;6169;44.158;22.788;2022-10-01T15:33:02;25.42;;;16.70;;
12212;SDS011;6169;44.158;22.788;2022-10-01T15:38:07;11.82;;;8.77;;
12212;SDS011;6169;44.158;22.788;2022-10-01T15:43:19;14.00;;;8.63;;
12212;SDS011;6169;44.158;22.788;2022-10-01T15:48:26;9.80;;;8.70;;
12212;SDS011;6169;44.158;22.788;2022-10-01T15:53:31;16.30;;;10.43;;
12212;SDS011;6169;44.158;22.788;2022-10-01T15:58:35;14.23;;;9.05;;
12212;SDS011;6169;44.158;22.788;2022-10-01T16:03:47;10.63;;;9.55;;
12212;SDS011;6169;44.158;22.788;2022-10-01T16:09:04;16.40;;;10.73;;
12212;SDS011;6169;44.158;22.788;2022-10-01T16:14:20;16.58;;;12.20;;
12212;SDS011;6169;44.158;22.788;2022-10-01T16:19:33;12.82;;;10.35;;
12212;SDS011;6169;44.158;22.788;2022-10-01T16:24:41;16.67;;;10.27;;
12212;SDS011;6169;44.158;22.788;2022-10-01T16:29:55;12.85;;;9.30;;
12212;SDS011;6169;44.158;22.788;2022-10-01T16:35:16;12.70;;;9.80;;
12212;SDS011;6169;44.158;22.788;2022-10-01T16:40:22;12.90;;;8.77;;
12212;SDS011;6169;44.158;22.788;2022-10-01T16:45:26;9.60;;;8.38;;
12212;SDS011;6169;44.158;22.788;2022-10-01T16:50:35;11.02;;;8.93;;
12212;SDS011;6169;44.158;22.788;2022-10-01T16:55:38;14.48;;;10.40;;
12212;SDS011;6169;44.158;22.788;2022-10-01T17:00:41;16.42;;;9.43;;
12212;SDS011;6169;44.158;22.788;2022-10-01T17:05:43;16.05;;;11.25;;
12212;SDS011;6169;44.158;22.788;2022-10-01T17:10:49;8.95;;;8.05;;
12212;SDS011;6169;44.158;22.788;2022-10-01T17:15:56;13.32;;;7.85;;
12212;SDS011;6169;44.158;22.788;2022-10-01T17:21:00;12.02;;;8.40;;
12212;SDS011;6169;44.158;22.788;2022-10-01T17:26:05;13.73;;;9.00;;
12212;SDS011;6169;44.158;22.788;2022-10-01T17:31:09;16.70;;;9.95;;
12212;SDS011;6169;44.158;22.788;2022-10-01T17:36:11;11.00;;;8.85;;
12212;SDS011;6169;44.158;22.788;2022-10-01T17:41:15;16.48;;;9.98;;
12212;SDS011;6169;44.158;22.788;2022-10-01T17:46:17;13.50;;;8.50;;
12212;SDS011;6169;44.158;22.788;2022-10-01T17:51:19;10.75;;;9.07;;
12212;SDS011;6169;44.158;22.788;2022-10-01T17:56:24;13.32;;;10.13;;
12212;SDS011;6169;44.158;22.788;2022-10-01T18:01:26;14.45;;;9.75;;
12212;SDS011;6169;44.158;22.788;2022-10-01T18:06:29;12.60;;;8.45;;
12212;SDS011;6169;44.158;22.788;2022-10-01T18:11:33;11.18;;;9.15;;
12212;SDS011;6169;44.158;22.788;2022-10-01T18:16:35;11.77;;;9.38;;
12212;SDS011;6169;44.158;22.788;2022-10-01T18:21:38;11.38;;;9.18;;
12212;SDS011;6169;44.158;22.788;2022-10-01T18:26:41;14.38;;;10.15;;
12212;SDS011;6169;44.158;22.788;2022-10-01T18:31:45;16.10;;;9.82;;
12212;SDS011;6169;44.158;22.788;2022-10-01T18:36:54;14.13;;;10.02;;
12212;SDS011;6169;44.158;22.788;2022-10-01T18:42:08;13.77;;;11.25;;
12212;SDS011;6169;44.158;22.788;2022-10-01T18:47:17;14.55;;;9.95;;
12212;SDS011;6169;44.158;22.788;2022-10-01T18:52:32;12.60;;;10.07;;
12212;SDS011;6169;44.158;22.788;2022-10-01T18:57:51;11.20;;;10.07;;
12212;SDS011;6169;44.158;22.788;2022-10-01T19:03:12;15.55;;;11.77;;
12212;SDS011;6169;44.158;22.788;2022-10-01T19:08:38;18.02;;;11.10;;
12212;SDS011;6169;44.158;22.788;2022-10-01T19:14:06;21.20;;;12.18;;
12212;SDS011;6169;44.158;22.788;2022-10-01T19:19:27;13.48;;;11.50;;
12212;SDS011;6169;44.158;22.788;2022-10-01T19:24:50;15.93;;;12.13;;
12212;SDS011;6169;44.158;22.788;2022-10-01T19:30:03;13.27;;;11.15;;
12212;SDS011;6169;44.158;22.788;2022-10-01T19:35:14;16.13;;;11.68;;
12212;SDS011;6169;44.158;22.788;2022-10-01T19:40:21;12.40;;;10.93;;
12212;SDS011;6169;44.158;22.788;2022-10-01T19:45:34;16.00;;;12.20;;
12212;SDS011;6169;44.158;22.788;2022-10-01T19:50:43;14.45;;;10.70;;
12212;SDS011;6169;44.158;22.788;2022-10-01T19:55:50;14.45;;;9.93;;
12212;SDS011;6169;44.158;22.788;2022-10-01T20:00:56;13.68;;;10.07;;
12212;SDS011;6169;44.158;22.788;2022-10-01T20:06:01;11.85;;;9.82;;
12212;SDS011;6169;44.158;22.788;2022-10-01T20:11:09;12.30;;;7.88;;
12212;SDS011;6169;44.158;22.788;2022-10-01T20:16:17;13.88;;;9.10;;
12212;SDS011;6169;44.158;22.788;2022-10-01T20:21:27;11.80;;;6.90;;
12212;SDS011;6169;44.158;22.788;2022-10-01T20:26:42;11.27;;;7.50;;
12212;SDS011;6169;44.158;22.788;2022-10-01T20:31:53;13.48;;;6.93;;
12212;SDS011;6169;44.158;22.788;2022-10-01T20:37:03;6.80;;;4.68;;
12212;SDS011;6169;44.158;22.788;2022-10-01T20:42:21;6.90;;;4.20;;
12212;SDS011;6169;44.158;22.788;2022-10-01T20:47:35;3.55;;;2.75;;
12212;SDS011;6169;44.158;22.788;2022-10-01T20:52:47;3.25;;;2.55;;
12212;SDS011;6169;44.158;22.788;2022-10-01T20:58:04;3.85;;;1.98;;
12212;SDS011;6169;44.158;22.788;2022-10-01T21:03:21;1.25;;;1.15;;
12212;SDS011;6169;44.158;22.788;2022-10-01T21:08:32;4.47;;;1.10;;
12212;SDS011;6169;44.158;22.788;2022-10-01T21:13:42;1.10;;;1.00;;
12212;SDS011;6169;44.158;22.788;2022-10-01T21:18:57;1.52;;;1.00;;
12212;SDS011;6169;44.158;22.788;2022-10-01T21:24:16;0.80;;;0.80;;
12212;SDS011;6169;44.158;22.788;2022-10-01T21:29:41;1.50;;;1.30;;
12212;SDS011;6169;44.158;22.788;2022-10-01T21:40:15;1.67;;;1.08;;
12212;SDS011;6169;44.158;22.788;2022-10-01T21:45:26;1.80;;;1.13;;
12212;SDS011;6169;44.158;22.788;2022-10-01T21:50:49;1.17;;;1.08;;
12212;SDS011;6169;44.158;22.788;2022-10-01T21:55:58;0.85;;;0.40;;
12212;SDS011;6169;44.158;22.788;2022-10-01T22:01:19;2.90;;;0.77;;
12212;SDS011;6169;44.158;22.788;2022-10-01T22:06:32;4.90;;;1.38;;
12212;SDS011;6169;44.158;22.788;2022-10-01T22:11:44;1.65;;;0.40;;
12212;SDS011;6169;44.158;22.788;2022-10-01T22:16:50;2.03;;;0.63;;
12212;SDS011;6169;44.158;22.788;2022-10-01T22:21:58;3.80;;;0.60;;
12212;SDS011;6169;44.158;22.788;2022-10-01T22:32:11;1.75;;;0.60;;
12212;SDS011;6169;44.158;22.788;2022-10-01T22:37:19;0.20;;;0.20;;
12212;SDS011;6169;44.158;22.788;2022-10-01T22:42:26;2.10;;;0.30;;
12212;SDS011;6169;44.158;22.788;2022-10-01T22:47:36;3.60;;;0.50;;
12212;SDS011;6169;44.158;22.788;2022-10-01T22:53:03;1.25;;;0.30;;
12212;SDS011;6169;44.158;22.788;2022-10-01T22:58:20;2.47;;;0.63;;
12212;SDS011;6169;44.158;22.788;2022-10-01T23:03:37;0.85;;;0.40;;
12212;SDS011;6169;44.158;22.788;2022-10-01T23:08:52;1.73;;;0.25;;
12212;SDS011;6169;44.158;22.788;2022-10-01T23:14:04;0.38;;;0.20;;
12212;SDS011;6169;44.158;22.788;2022-10-01T23:19:26;2.83;;;0.17;;
12212;SDS011;6169;44.158;22.788;2022-10-01T23:24:45;0.28;;;0.20;;
12212;SDS011;6169;44.158;22.788;2022-10-01T23:30:02;1.15;;;0.20;;
12212;SDS011;6169;44.158;22.788;2022-10-01T23:35:11;0.47;;;0.20;;
12212;SDS011;6169;44.158;22.788;2022-10-01T23:40:17;3.72;;;0.28;;
12212;SDS011;6169;44.158;22.788;2022-10-01T23:45:23;1.55;;;0.50;;
12212;SDS011;6169;44.158;22.788;2022-10-01T23:50:31;1.00;;;0.30;;
12212;SDS011;6169;44.158;22.788;2022-10-01T23:55:45;2.55;;;0.40;;
